Time;durP1;ratioP1;P1;durP2;ratioP2;P2;SDS_P1;SDS_P2;PMS_P1;PMS_P2;Temp;Humidity;BMP_temperature;BMP_pressure;BME280_temperature;BME280_humidity;BME280_pressure;Samples;Min_cycle;Max_cycle;Signal;HPM_P1;HPM_P2
2022/11/06 00:00:49;;;;;;;;;9.67;9.67;;;;;13.91;87.52;101252.66;5001777;28;45324;-76
2022/11/06 00:03:14;;;;;;;;;9.67;8.67;;;;;13.91;87.22;101252.66;5003829;28;58555;-75
2022/11/06 00:08:35;;;;;;;;;10.00;9.33;;;;;13.37;89.31;101271.34;5001799;28;45524;-76
2022/11/06 00:11:06;;;;;;;;;8.00;8.00;;;;;13.23;89.44;101266.81;5001452;28;45587;-76
2022/11/06 00:13:31;;;;;;;;;12.00;10.00;;;;;13.30;89.80;101261.56;5004068;28;46452;-75
2022/11/06 00:16:02;;;;;;;;;10.67;9.67;;;;;13.22;90.54;101249.09;5012765;28;45365;-76
2022/11/06 00:18:27;;;;;;;;;7.33;6.00;;;;;13.29;90.39;101242.03;5000063;28;45284;-76
2022/11/06 00:20:52;;;;;;;;;7.33;6.33;;;;;13.30;90.56;101237.53;5001739;28;45212;-75
2022/11/06 00:23:18;;;;;;;;;8.00;8.00;;;;;13.41;90.65;101228.28;5001494;28;46124;-76
2022/11/06 00:25:43;;;;;;;;;8.00;8.00;;;;;13.33;90.02;101224.66;5000123;28;45273;-75
2022/11/06 00:28:11;;;;;;;;;8.33;8.33;;;;;13.31;90.47;101223.16;5001497;28;45313;-75
2022/11/06 00:30:37;;;;;;;;;9.00;8.67;;;;;13.37;89.97;101222.44;5001250;28;49516;-75
2022/11/06 00:33:02;;;;;;;;;8.67;8.00;;;;;13.45;90.08;101226.88;5001321;28;45361;-76
2022/11/06 00:35:28;;;;;;;;;12.67;10.67;;;;;13.50;89.31;101230.69;5000032;28;45387;-75
2022/11/06 00:37:53;;;;;;;;;8.00;8.00;;;;;13.43;89.71;101236.91;5001396;28;45333;-76
2022/11/06 00:40:18;;;;;;;;;8.33;8.00;;;;;13.38;90.49;101248.16;5001362;28;45293;-75
2022/11/06 00:42:44;;;;;;;;;6.00;5.33;;;;;13.34;90.55;101233.50;5000810;28;47200;-76
2022/11/06 00:45:09;;;;;;;;;6.67;6.00;;;;;13.22;90.72;101203.72;5001047;28;48565;-75
2022/11/06 00:47:34;;;;;;;;;10.00;9.67;;;;;13.41;90.87;101236.28;5001259;28;46603;-76
2022/11/06 00:50:00;;;;;;;;;8.00;7.33;;;;;13.32;90.62;101228.31;5001284;28;45245;-76
2022/11/06 00:52:28;;;;;;;;;7.33;6.67;;;;;13.44;90.45;101228.72;5000950;28;46159;-76
2022/11/06 00:54:53;;;;;;;;;11.67;10.00;;;;;13.80;89.22;101224.56;5001263;28;45236;-75
2022/11/06 00:57:18;;;;;;;;;10.00;9.00;;;;;13.83;88.69;101226.03;5000969;28;45284;-76
2022/11/06 00:59:44;;;;;;;;;6.67;6.67;;;;;13.92;88.29;101221.44;4983160;28;46086;-76
2022/11/06 01:02:09;;;;;;;;;8.33;8.33;;;;;13.53;89.79;101218.81;5000898;28;45240;-76
2022/11/06 01:04:35;;;;;;;;;8.00;7.67;;;;;13.49;90.55;101229.06;5000759;28;45166;-76
2022/11/06 01:07:00;;;;;;;;;9.67;8.33;;;;;13.80;89.75;101227.22;5001056;28;45580;-75
2022/11/06 01:09:27;;;;;;;;;10.00;9.00;;;;;13.63;90.30;101213.22;5000858;28;45362;-75
2022/11/06 01:11:55;;;;;;;;;8.67;8.67;;;;;13.52;89.92;101211.03;4983114;28;46953;-76
2022/11/06 01:14:22;;;;;;;;;9.67;9.67;;;;;13.49;90.24;101205.03;5000638;28;45436;-76
2022/11/06 01:16:48;;;;;;;;;9.00;9.00;;;;;13.89;89.14;101203.94;5000705;28;45396;-75
2022/11/06 01:19:16;;;;;;;;;12.33;8.67;;;;;13.60;90.28;101205.59;5000694;28;45499;-75
2022/11/06 01:21:46;;;;;;;;;7.00;7.00;;;;;13.61;90.39;101205.41;4982875;28;47272;-75
2022/11/06 01:24:23;;;;;;;;;8.00;8.00;;;;;14.01;88.78;101213.13;5000532;28;45191;-75
2022/11/06 01:26:49;;;;;;;;;9.00;9.00;;;;;14.05;88.13;101200.22;5000759;28;45162;-76
2022/11/06 01:29:16;;;;;;;;;9.33;9.00;;;;;14.11;87.80;101190.63;4999918;28;45304;-76
2022/11/06 01:31:42;;;;;;;;;9.00;8.00;;;;;14.06;87.10;101174.31;5000129;28;45965;-76
2022/11/06 01:34:07;;;;;;;;;11.67;10.33;;;;;13.70;88.43;101176.75;5000192;28;45316;-75
2022/11/06 01:36:33;;;;;;;;;8.00;8.00;;;;;13.70;89.44;101176.75;5000706;28;45270;-76
2022/11/06 01:39:01;;;;;;;;;8.00;7.33;;;;;14.05;88.76;101183.34;4980557;28;47381;-75
2022/11/06 01:41:31;;;;;;;;;7.67;7.67;;;;;14.14;88.09;101185.75;5000275;28;47147;-75
2022/11/06 01:43:58;;;;;;;;;8.00;8.00;;;;;14.17;87.49;101179.19;4998646;28;45960;-76
2022/11/06 01:46:30;;;;;;;;;7.33;7.33;;;;;14.31;86.83;101193.53;5000458;28;45333;-75
2022/11/06 01:49:02;;;;;;;;;12.33;9.00;;;;;14.21;86.62;101177.81;4982501;28;47457;-75
2022/11/06 01:51:33;;;;;;;;;6.00;6.00;;;;;14.14;86.95;101180.41;4998851;28;47232;-76
2022/11/06 01:54:01;;;;;;;;;9.00;8.00;;;;;13.80;88.03;101178.31;5000088;28;45404;-76
2022/11/06 01:56:27;;;;;;;;;8.33;8.33;;;;;14.01;88.47;101177.56;4999996;28;45369;-75
2022/11/06 01:58:54;;;;;;;;;10.00;10.00;;;;;13.78;88.73;101172.31;4999941;28;45440;-76
2022/11/06 02:01:20;;;;;;;;;7.00;7.00;;;;;13.93;89.13;101178.50;4989082;28;48198;-76
2022/11/06 02:03:55;;;;;;;;;7.33;7.33;;;;;13.85;89.42;101181.25;4982431;28;46164;-76
2022/11/06 02:06:21;;;;;;;;;10.00;10.00;;;;;13.92;89.47;101176.00;4999985;28;45226;-75
2022/11/06 02:08:46;;;;;;;;;4.33;3.33;;;;;13.96;88.89;101175.47;4982259;28;47259;-76
2022/11/06 02:11:12;;;;;;;;;6.67;6.00;;;;;14.15;89.38;101181.22;4999707;28;45793;-75
2022/11/06 02:13:53;;;;;;;;;8.33;7.33;;;;;14.02;88.69;101168.53;4999869;28;45393;-75
2022/11/06 02:16:37;;;;;;;;;6.00;6.00;;;;;14.02;89.50;101176.56;4999969;28;45198;-76
2022/11/06 02:19:31;;;;;;;;;8.33;7.33;;;;;14.17;89.05;101167.66;4999877;28;45501;-75
2022/11/06 02:22:11;;;;;;;;;7.67;6.33;;;;;14.31;88.52;101156.09;4981692;28;48186;-75
2022/11/06 02:25:01;;;;;;;;;7.67;7.67;;;;;14.05;88.65;101157.47;4999863;28;45397;-75
2022/11/06 02:27:28;;;;;;;;;8.33;7.00;;;;;14.07;88.58;101143.94;4999635;28;45230;-76
2022/11/06 02:30:05;;;;;;;;;14.33;9.67;;;;;13.87;89.13;101118.63;4999672;28;45376;-75
2022/11/06 02:32:34;;;;;;;;;7.67;6.67;;;;;13.97;88.78;101117.47;4999461;28;45330;-76
2022/11/06 02:35:04;;;;;;;;;7.33;6.33;;;;;13.91;89.17;101112.91;4999688;28;45348;-76
2022/11/06 02:37:35;;;;;;;;;7.00;7.00;;;;;14.31;87.99;101097.28;4999451;28;45230;-76
2022/11/06 02:40:06;;;;;;;;;7.00;6.67;;;;;14.16;88.41;101092.03;4998157;28;47545;-75
2022/11/06 02:42:37;;;;;;;;;8.33;8.33;;;;;13.64;89.73;101070.66;4999103;28;45317;-75
2022/11/06 02:45:06;;;;;;;;;6.67;6.00;;;;;13.80;89.77;101079.47;4981571;28;45492;-75
2022/11/06 02:47:33;;;;;;;;;7.00;7.00;;;;;13.71;89.78;101071.56;4981906;28;45334;-76
2022/11/06 02:50:18;;;;;;;;;7.33;6.00;;;;;13.71;89.94;101065.41;4997999;28;47408;-75
2022/11/06 02:52:49;;;;;;;;;6.00;6.00;;;;;13.93;89.67;101060.09;4999174;28;45405;-75
2022/11/06 02:55:52;;;;;;;;;8.33;7.00;;;;;13.62;90.32;101060.16;4981609;28;45425;-76
2022/11/06 02:58:25;;;;;;;;;5.67;4.00;;;;;13.64;90.03;101081.34;4984962;28;45378;-75
2022/11/06 03:01:03;;;;;;;;;6.33;4.33;;;;;13.74;90.48;101079.19;4999240;28;45276;-76
2022/11/06 03:03:35;;;;;;;;;6.33;6.00;;;;;13.56;90.92;101068.09;4986495;28;45367;-76
2022/11/06 03:06:09;;;;;;;;;6.67;6.00;;;;;13.48;90.71;101055.66;4999169;28;45356;-76
2022/11/06 03:08:53;;;;;;;;;6.67;6.67;;;;;13.62;90.69;101083.38;4981610;28;45350;-76
2022/11/06 03:11:28;;;;;;;;;6.00;6.00;;;;;13.44;91.13;101049.84;4981118;28;46256;-75
2022/11/06 03:14:13;;;;;;;;;6.33;6.33;;;;;13.58;90.35;101050.88;4999008;28;46685;-75
2022/11/06 03:16:49;;;;;;;;;6.00;6.00;;;;;13.49;91.03;101078.66;4981235;28;45290;-75
2022/11/06 03:19:45;;;;;;;;;6.00;6.00;;;;;13.86;89.56;101084.88;4997981;28;45316;-75
2022/11/06 03:22:39;;;;;;;;;5.00;4.00;;;;;13.90;89.27;101069.31;4986245;28;45341;-75
2022/11/06 03:25:15;;;;;;;;;5.33;5.00;;;;;13.82;89.76;101064.91;4991241;28;45586;-75
2022/11/06 03:28:05;;;;;;;;;6.00;6.00;;;;;14.14;88.58;101064.66;4967807;28;45375;-75
2022/11/06 03:30:35;;;;;;;;;4.67;4.67;;;;;13.60;89.66;101070.22;4998945;28;45323;-76
2022/11/06 03:33:20;;;;;;;;;6.00;5.00;;;;;13.49;90.81;101063.50;4997651;28;47034;-75
2022/11/06 03:36:04;;;;;;;;;6.67;5.00;;;;;13.78;90.64;101060.97;4998717;28;45352;-75
2022/11/06 03:38:32;;;;;;;;;6.00;6.00;;;;;13.70;89.50;101053.88;5009832;28;45365;-76
2022/11/06 03:41:03;;;;;;;;;6.00;5.00;;;;;13.62;90.23;101046.00;4999953;28;45224;-75
2022/11/06 03:43:35;;;;;;;;;8.67;6.67;;;;;13.63;88.92;101053.81;4998448;28;46385;-75
2022/11/06 03:46:04;;;;;;;;;6.00;6.00;;;;;13.54;90.06;101054.09;4998295;28;46185;-76
2022/11/06 03:48:34;;;;;;;;;8.33;8.00;;;;;13.66;90.36;101049.94;4998773;28;45500;-75
2022/11/06 03:51:11;;;;;;;;;8.00;5.33;;;;;13.78;90.10;101052.97;4998629;28;45500;-76
2022/11/06 03:53:40;;;;;;;;;7.33;7.00;;;;;13.57;90.36;101040.38;4999932;28;45458;-76
2022/11/06 03:56:13;;;;;;;;;6.67;6.67;;;;;13.52;90.65;101034.78;4983998;28;47239;-76
2022/11/06 03:58:44;;;;;;;;;7.33;7.33;;;;;13.52;90.76;101042.78;5001860;28;45495;-75
2022/11/06 04:01:13;;;;;;;;;9.00;7.00;;;;;13.52;90.66;101045.47;5001855;28;45261;-75
2022/11/06 04:04:03;;;;;;;;;4.33;4.33;;;;;13.66;90.39;101036.59;5001956;28;45350;-76
2022/11/06 04:06:28;;;;;;;;;7.00;7.00;;;;;13.56;89.86;101052.09;5000864;28;45297;-76
2022/11/06 04:14:32;;;;;;;;;5.67;5.33;;;;;13.74;89.04;101024.97;5001771;28;45406;-76
2022/11/06 04:17:01;;;;;;;;;7.00;7.00;;;;;13.41;89.50;100998.66;5001519;28;45440;-75
2022/11/06 04:19:26;;;;;;;;;7.00;7.00;;;;;13.56;90.54;100993.34;5001728;28;45511;-75
2022/11/06 04:22:11;;;;;;;;;6.00;6.00;;;;;13.47;90.64;101012.09;5001655;28;45369;-75
2022/11/06 04:27:45;;;;;;;;;6.00;6.00;;;;;13.50;89.44;101006.41;5001137;28;45297;-76
2022/11/06 04:30:15;;;;;;;;;6.67;6.67;;;;;13.23;89.76;100976.69;5001425;28;45440;-75
2022/11/06 04:33:21;;;;;;;;;7.67;5.33;;;;;13.27;90.13;100985.16;5001491;28;45214;-76
2022/11/06 04:35:57;;;;;;;;;7.00;7.00;;;;;13.25;90.44;100982.69;4974928;28;45358;-76
2022/11/06 04:38:48;;;;;;;;;10.33;5.67;;;;;13.29;90.05;100990.31;5001293;28;45321;-76
2022/11/06 04:41:33;;;;;;;;;5.00;5.00;;;;;13.24;90.23;100986.38;4983428;28;45288;-76
2022/11/06 04:44:04;;;;;;;;;5.00;5.00;;;;;13.68;89.93;100978.44;5000885;28;45234;-76
2022/11/06 04:46:36;;;;;;;;;5.33;4.33;;;;;13.66;88.66;100985.00;4999890;28;46020;-76
2022/11/06 04:49:04;;;;;;;;;7.00;6.33;;;;;13.69;87.77;100982.81;4999913;28;48207;-75
2022/11/06 04:51:34;;;;;;;;;6.00;6.00;;;;;13.63;87.59;100978.22;5001112;28;45475;-76
2022/11/06 04:54:00;;;;;;;;;5.67;5.33;;;;;13.56;87.68;100966.63;5001141;28;45280;-76
2022/11/06 04:56:29;;;;;;;;;5.00;4.00;;;;;13.56;87.23;100988.81;5000781;28;45747;-76
2022/11/06 04:58:55;;;;;;;;;6.00;6.00;;;;;13.42;88.18;100986.97;5000837;28;46604;-75
2022/11/06 05:01:20;;;;;;;;;6.33;6.33;;;;;13.42;87.91;100977.13;4989881;28;45416;-76
2022/11/06 05:03:45;;;;;;;;;5.33;5.00;;;;;13.42;87.89;100981.63;5001282;28;45599;-76
2022/11/06 05:06:11;;;;;;;;;7.33;6.00;;;;;13.56;87.71;100970.09;4981929;28;46764;-76
2022/11/06 05:08:37;;;;;;;;;10.33;8.33;;;;;13.32;88.34;100974.75;4999569;28;47985;-76
2022/11/06 05:11:02;;;;;;;;;6.00;5.00;;;;;13.32;88.63;100969.41;5000732;28;45341;-76
2022/11/06 05:13:27;;;;;;;;;5.00;5.00;;;;;13.12;88.60;100956.66;5000765;28;45388;-75
2022/11/06 05:15:58;;;;;;;;;6.00;5.33;;;;;13.15;89.88;100974.13;4983170;28;47277;-76
2022/11/06 05:18:24;;;;;;;;;8.67;7.33;;;;;13.12;90.41;100958.50;5000597;28;45344;-75
2022/11/06 05:22:56;;;;;;;;;7.67;7.00;;;;;13.24;89.65;100943.66;4999446;28;45882;-76
2022/11/06 05:23:37;;;;;;;;;6.00;6.00;;;;;13.14;90.18;100951.09;5000466;28;45345;-76
2022/11/06 05:26:06;;;;;;;;;4.33;4.33;;;;;13.11;90.65;100954.97;4982856;28;45255;-75
2022/11/06 05:28:31;;;;;;;;;6.00;6.00;;;;;13.09;90.69;100953.53;4982671;28;47197;-76
2022/11/06 05:30:57;;;;;;;;;6.00;5.67;;;;;13.01;91.21;100943.78;5000409;28;45357;-76
2022/11/06 05:33:22;;;;;;;;;6.00;5.00;;;;;13.22;90.25;100956.34;5000883;28;45277;-76
2022/11/06 05:35:48;;;;;;;;;6.00;6.00;;;;;13.13;90.13;100942.28;4982691;28;45864;-76
2022/11/06 05:38:13;;;;;;;;;5.33;5.33;;;;;13.03;90.56;100924.91;5000403;28;45478;-76
2022/11/06 05:40:39;;;;;;;;;6.67;6.00;;;;;13.06;90.89;100932.53;5000326;28;45382;-77
2022/11/06 05:43:04;;;;;;;;;4.00;4.00;;;;;13.13;91.02;100914.78;5000515;28;45404;-75
2022/11/06 05:45:29;;;;;;;;;5.00;5.00;;;;;13.02;90.87;100921.41;4998918;28;46088;-76
2022/11/06 05:47:55;;;;;;;;;5.33;5.33;;;;;13.12;91.29;100911.28;5000057;28;46165;-76
2022/11/06 05:50:20;;;;;;;;;5.00;5.00;;;;;13.09;91.51;100908.16;5000426;28;45297;-75
2022/11/06 05:52:45;;;;;;;;;4.67;4.67;;;;;13.17;91.48;100896.56;5000181;28;45571;-76
2022/11/06 05:55:11;;;;;;;;;5.00;5.00;;;;;13.00;91.68;100908.25;5000214;28;49425;-76
2022/11/06 05:57:36;;;;;;;;;5.00;5.00;;;;;12.95;91.29;100899.16;4998751;28;47037;-76
2022/11/06 06:00:04;;;;;;;;;6.00;5.00;;;;;13.10;91.45;100904.47;5000212;28;45261;-76
2022/11/06 06:02:29;;;;;;;;;4.33;4.00;;;;;12.94;91.02;100906.34;5000165;28;45179;-76
2022/11/06 06:04:55;;;;;;;;;6.00;5.00;;;;;12.88;91.54;100897.22;4999932;28;45230;-76
2022/11/06 06:07:20;;;;;;;;;7.00;6.00;;;;;12.91;91.67;100905.88;4999639;28;54526;-75
2022/11/06 06:09:45;;;;;;;;;6.67;4.67;;;;;13.00;91.63;100918.13;4998514;28;45263;-75
2022/11/06 06:12:14;;;;;;;;;6.67;5.33;;;;;12.88;92.17;100912.41;4982200;28;45412;-75
2022/11/06 06:14:40;;;;;;;;;5.33;4.33;;;;;12.83;92.01;100901.47;4999888;28;45405;-76
2022/11/06 06:17:06;;;;;;;;;5.33;5.33;;;;;13.10;91.30;100902.63;4999333;28;45412;-76
2022/11/06 06:19:31;;;;;;;;;5.67;5.67;;;;;12.95;91.38;100888.47;4998689;28;45663;-75
2022/11/06 06:21:57;;;;;;;;;5.00;5.00;;;;;12.80;91.17;100909.84;4982110;28;45473;-76
2022/11/06 06:24:22;;;;;;;;;7.67;5.00;;;;;12.70;91.70;100918.13;4999794;28;45466;-75
2022/11/06 06:26:47;;;;;;;;;6.00;5.33;;;;;12.99;91.44;100917.28;4982028;28;47974;-75
2022/11/06 06:29:13;;;;;;;;;6.33;6.00;;;;;12.71;91.89;100909.94;4999376;28;45270;-76
2022/11/06 06:31:41;;;;;;;;;6.00;5.00;;;;;12.84;91.71;100916.47;5000049;28;45340;-75
2022/11/06 06:34:06;;;;;;;;;5.00;5.00;;;;;12.67;91.73;100911.34;4981942;28;46133;-75
2022/11/06 06:36:31;;;;;;;;;4.00;4.00;;;;;12.91;91.86;100896.06;4981921;28;47343;-75
2022/11/06 06:38:57;;;;;;;;;4.00;4.00;;;;;12.74;91.62;100890.06;4999431;28;45329;-75
2022/11/06 06:41:23;;;;;;;;;4.67;4.00;;;;;12.77;91.85;100897.72;4981994;28;45388;-75
2022/11/06 06:43:49;;;;;;;;;2.67;2.00;;;;;12.71;91.85;100887.78;4999505;28;45549;-76
2022/11/06 06:46:15;;;;;;;;;4.67;4.67;;;;;12.75;91.46;100876.56;4999124;28;46146;-75
2022/11/06 06:48:40;;;;;;;;;5.33;5.00;;;;;12.71;92.07;100866.44;4981785;28;45395;-76
2022/11/06 06:51:06;;;;;;;;;4.00;4.00;;;;;12.72;91.39;100866.25;4999468;28;45289;-75
2022/11/06 06:53:32;;;;;;;;;5.00;5.00;;;;;12.70;91.38;100852.31;4998059;28;46184;-75
2022/11/06 06:55:59;;;;;;;;;7.00;7.00;;;;;12.64;91.19;100837.03;4999237;28;46095;-75
2022/11/06 06:58:25;;;;;;;;;3.67;3.67;;;;;12.75;91.06;100862.38;4997904;28;45386;-76
2022/11/06 07:00:50;;;;;;;;;5.33;5.33;;;;;12.87;90.67;100868.09;4999332;28;45431;-76
2022/11/06 07:03:15;;;;;;;;;6.67;6.00;;;;;12.78;90.51;100856.69;4998565;28;45953;-75
2022/11/06 07:05:40;;;;;;;;;6.00;6.00;;;;;12.73;90.36;100851.94;4993634;28;46206;-77
2022/11/06 07:08:06;;;;;;;;;6.67;6.67;;;;;12.78;90.37;100855.88;4972324;28;45465;-79
2022/11/06 07:10:31;;;;;;;;;7.00;7.00;;;;;12.77;90.36;100843.53;4976853;28;45990;-76
2022/11/06 07:13:01;;;;;;;;;6.67;6.67;;;;;12.81;90.35;100842.16;4979927;28;46284;-76
2022/11/06 07:15:26;;;;;;;;;5.00;5.00;;;;;12.74;90.24;100829.56;4997796;28;47359;-75
2022/11/06 07:17:52;;;;;;;;;4.67;4.67;;;;;12.77;90.56;100838.19;4997443;28;45239;-78
2022/11/06 07:20:17;;;;;;;;;5.00;5.00;;;;;12.77;90.74;100825.69;4981034;28;45251;-79
2022/11/06 07:22:43;;;;;;;;;5.33;4.33;;;;;12.81;90.42;100820.84;4999309;28;45453;-76
2022/11/06 07:25:11;;;;;;;;;4.00;4.00;;;;;12.73;90.43;100817.25;4999456;28;46439;-76
2022/11/06 07:27:36;;;;;;;;;4.67;4.67;;;;;12.78;90.78;100822.00;4999162;28;45233;-75
2022/11/06 07:30:03;;;;;;;;;7.00;6.00;;;;;12.82;90.92;100833.97;5002657;28;45466;-75
2022/11/06 07:32:29;;;;;;;;;7.33;7.00;;;;;12.86;90.22;100834.41;4997858;28;48022;-78
2022/11/06 07:34:54;;;;;;;;;6.67;4.33;;;;;12.94;89.98;100833.50;4991650;28;45297;-78
2022/11/06 07:37:19;;;;;;;;;4.00;3.33;;;;;12.78;90.32;100818.53;5001482;28;45474;-79
2022/11/06 07:39:44;;;;;;;;;3.00;3.00;;;;;12.90;90.44;100829.56;4998355;28;45416;-79
2022/11/06 07:42:10;;;;;;;;;4.00;4.00;;;;;12.91;90.15;100821.34;4996842;28;45577;-79
2022/11/06 07:44:35;;;;;;;;;4.00;4.00;;;;;12.94;89.86;100825.47;4995086;28;45343;-80
2022/11/06 07:47:01;;;;;;;;;6.33;6.33;;;;;12.86;89.99;100813.91;5006127;28;45399;-79
2022/11/06 07:49:26;;;;;;;;;3.33;3.00;;;;;12.88;90.30;100819.06;5008577;28;45677;-78
2022/11/06 07:51:51;;;;;;;;;4.00;4.00;;;;;12.93;89.86;100823.84;5000591;28;46484;-80
2022/11/06 07:54:17;;;;;;;;;3.00;3.00;;;;;12.91;89.55;100821.34;5000754;28;45569;-79
2022/11/06 07:56:42;;;;;;;;;3.67;3.67;;;;;12.96;89.43;100824.28;5004173;28;45294;-79
2022/11/06 07:59:07;;;;;;;;;4.00;4.00;;;;;12.82;89.52;100799.31;5002492;28;46109;-79
2022/11/06 08:01:33;;;;;;;;;5.00;5.00;;;;;12.97;89.88;100812.59;5006796;28;45472;-79
2022/11/06 08:03:58;;;;;;;;;7.00;5.00;;;;;13.08;89.55;100815.78;4989135;28;47618;-79
2022/11/06 08:06:23;;;;;;;;;4.67;4.67;;;;;13.08;89.49;100815.78;5003468;28;45302;-79
2022/11/06 08:08:48;;;;;;;;;5.00;4.33;;;;;13.10;89.61;100809.25;4978592;28;45310;-79
2022/11/06 08:11:14;;;;;;;;;6.67;4.00;;;;;13.13;89.34;100818.72;5004983;28;45282;-79
2022/11/06 08:13:39;;;;;;;;;6.00;5.00;;;;;13.26;88.58;100818.03;4985690;28;48087;-79
2022/11/06 08:16:07;;;;;;;;;5.67;4.00;;;;;13.18;88.34;100818.16;5001138;28;45301;-80
2022/11/06 08:18:33;;;;;;;;;4.00;4.00;;;;;13.15;88.37;100814.03;5002060;28;45703;-79
2022/11/06 08:20:58;;;;;;;;;3.00;3.00;;;;;13.21;87.95;100805.25;5006887;28;45545;-79
2022/11/06 08:23:24;;;;;;;;;4.00;4.00;;;;;13.15;88.00;100790.00;5018620;28;45370;-77
2022/11/06 08:25:55;;;;;;;;;6.00;5.00;;;;;13.20;88.05;100794.78;5010039;28;45538;-80
2022/11/06 08:28:22;;;;;;;;;6.00;5.00;;;;;13.19;87.69;100793.94;5005052;28;45222;-82
2022/11/06 08:30:47;;;;;;;;;7.00;7.00;;;;;13.09;87.04;100782.75;5006117;28;45397;-80
2022/11/06 08:33:12;;;;;;;;;5.67;5.00;;;;;13.11;87.45;100786.88;4986924;28;46422;-82
2022/11/06 08:35:38;;;;;;;;;4.67;4.33;;;;;13.13;87.48;100776.84;5002227;28;45511;-81
2022/11/06 08:38:03;;;;;;;;;5.00;4.00;;;;;13.24;86.94;100804.88;5006347;28;45289;-81
2022/11/06 08:40:29;;;;;;;;;5.00;4.00;;;;;13.17;87.84;100798.63;4984257;28;45955;-81
2022/11/06 08:43:01;;;;;;;;;5.00;5.00;;;;;13.20;87.34;100794.78;5002181;28;45400;-81
2022/11/06 08:45:27;;;;;;;;;6.00;4.67;;;;;13.24;87.71;100796.88;5000796;28;45439;-82
2022/11/06 08:47:52;;;;;;;;;6.00;6.00;;;;;13.15;87.78;100775.81;4985700;28;45367;-80
2022/11/06 08:50:18;;;;;;;;;4.67;4.00;;;;;13.15;87.64;100776.66;5004363;28;45230;-81
2022/11/06 08:52:43;;;;;;;;;4.00;4.00;;;;;13.15;87.56;100768.66;5006314;28;45333;-80
2022/11/06 08:55:09;;;;;;;;;5.67;5.00;;;;;13.26;87.50;100773.47;5011179;28;45329;-82
2022/11/06 08:57:34;;;;;;;;;4.33;4.33;;;;;13.19;87.02;100761.91;5002632;28;45384;-80
2022/11/06 08:59:59;;;;;;;;;4.67;4.67;;;;;13.63;85.60;100765.41;4994717;28;45416;-79
2022/11/06 09:02:25;;;;;;;;;3.00;3.00;;;;;13.40;86.02;100757.56;4994853;28;45391;-77
2022/11/06 09:04:50;;;;;;;;;3.00;3.00;;;;;13.29;85.69;100750.09;5002058;28;45392;-78
2022/11/06 09:07:16;;;;;;;;;6.00;5.00;;;;;13.27;86.43;100742.28;5001113;28;45429;-79
2022/11/06 09:09:41;;;;;;;;;5.67;5.67;;;;;13.39;87.13;100759.41;5010616;28;45407;-76
2022/11/06 09:12:07;;;;;;;;;6.00;6.00;;;;;13.34;86.95;100745.81;5008890;28;45539;-77
2022/11/06 09:14:33;;;;;;;;;6.00;6.00;;;;;13.48;87.06;100756.63;4982564;28;45378;-77
2022/11/06 09:16:58;;;;;;;;;5.67;5.67;;;;;13.46;86.61;100743.47;5001597;28;45439;-76
2022/11/06 09:19:24;;;;;;;;;5.00;4.67;;;;;13.43;86.69;100751.84;4983576;28;45294;-77
2022/11/06 09:21:49;;;;;;;;;6.00;6.00;;;;;13.48;86.53;100759.28;4999478;28;49910;-76
2022/11/06 09:24:14;;;;;;;;;8.00;8.00;;;;;13.63;86.67;100767.25;5000459;28;47762;-76
2022/11/06 09:26:40;;;;;;;;;5.67;5.67;;;;;13.59;86.37;100752.63;5000901;28;45307;-77
2022/11/06 09:29:05;;;;;;;;;7.33;6.33;;;;;13.63;85.89;100756.56;5000373;28;45448;-75
2022/11/06 09:31:30;;;;;;;;;6.00;6.00;;;;;13.70;86.06;100751.25;5000535;28;45273;-75
2022/11/06 09:33:56;;;;;;;;;4.67;4.67;;;;;13.71;85.26;100736.91;4980827;28;45261;-76
2022/11/06 09:36:21;;;;;;;;;4.00;4.00;;;;;13.73;85.05;100735.66;4982925;28;45336;-75
2022/11/06 09:38:47;;;;;;;;;5.00;4.67;;;;;13.73;85.04;100727.66;5000465;28;45282;-76
2022/11/06 09:41:26;;;;;;;;;8.00;7.00;;;;;13.79;84.86;100717.19;4982749;28;47581;-76
2022/11/06 09:44:27;;;;;;;;;6.67;6.67;;;;;13.78;83.80;100711.03;5000260;28;45403;-75
2022/11/06 09:46:54;;;;;;;;;7.67;7.00;;;;;13.75;84.12;100698.09;4982843;28;45275;-76
2022/11/06 09:49:27;;;;;;;;;5.33;5.33;;;;;13.83;84.68;100699.78;5000137;28;45464;-76
2022/11/06 09:52:09;;;;;;;;;7.00;7.00;;;;;13.92;84.52;100693.22;5000300;28;45439;-76
2022/11/06 09:54:44;;;;;;;;;6.00;6.00;;;;;13.95;84.20;100684.81;5000301;28;45242;-75
2022/11/06 09:57:54;;;;;;;;;7.67;7.67;;;;;13.95;82.86;100678.66;5000419;28;45274;-76
2022/11/06 10:00:21;;;;;;;;;6.00;6.00;;;;;13.93;83.12;100668.19;4988385;28;45349;-77
2022/11/06 10:02:52;;;;;;;;;7.00;7.00;;;;;13.95;82.69;100658.09;4999975;28;45552;-76
2022/11/06 10:05:27;;;;;;;;;5.00;5.00;;;;;14.01;82.29;100670.66;5000000;28;45357;-76
2022/11/06 10:08:03;;;;;;;;;4.33;4.33;;;;;13.78;81.73;100638.09;4999850;28;45441;-77
2022/11/06 10:10:48;;;;;;;;;5.33;4.00;;;;;13.84;82.01;100650.66;4999905;28;45791;-75
2022/11/06 10:13:40;;;;;;;;;5.00;5.00;;;;;13.81;82.24;100640.38;4999661;28;45367;-75
2022/11/06 10:16:43;;;;;;;;;7.67;7.00;;;;;13.97;81.93;100634.69;4999943;28;45286;-75
2022/11/06 10:19:27;;;;;;;;;5.00;5.00;;;;;14.00;80.41;100641.47;4992567;28;45484;-76
2022/11/06 10:22:12;;;;;;;;;5.33;5.33;;;;;14.03;80.86;100649.09;4980383;28;45607;-78
2022/11/06 10:24:51;;;;;;;;;5.67;5.67;;;;;13.89;81.19;100640.22;5008717;28;46342;-77
2022/11/06 10:27:24;;;;;;;;;6.00;6.00;;;;;13.94;81.52;100652.97;5002478;28;45382;-76
2022/11/06 10:29:50;;;;;;;;;7.67;6.33;;;;;13.95;81.87;100642.06;5000003;28;45460;-77
2022/11/06 10:32:34;;;;;;;;;6.00;6.00;;;;;13.87;81.67;100628.91;4980228;28;46305;-76
2022/11/06 10:35:11;;;;;;;;;6.00;6.00;;;;;13.78;82.18;100632.75;4999866;28;46142;-76
2022/11/06 10:38:02;;;;;;;;;5.00;5.00;;;;;13.84;82.38;100643.47;4999336;28;45364;-76
2022/11/06 10:40:30;;;;;;;;;7.00;6.00;;;;;13.78;82.28;100633.59;4999124;28;45318;-77
2022/11/06 10:43:33;;;;;;;;;5.67;5.67;;;;;13.85;82.10;100642.44;4999227;28;45570;-77
2022/11/06 10:46:39;;;;;;;;;5.00;5.00;;;;;13.76;81.39;100630.28;4951420;28;48148;-76
2022/11/06 10:49:10;;;;;;;;;5.67;5.00;;;;;13.79;81.30;100647.75;4922494;28;45346;-76
2022/11/06 10:52:17;;;;;;;;;5.00;5.00;;;;;13.83;81.20;100646.34;4938946;28;45446;-75
2022/11/06 10:54:49;;;;;;;;;6.00;6.00;;;;;13.80;81.56;100649.41;4941582;28;45414;-76
2022/11/06 10:57:36;;;;;;;;;6.00;6.00;;;;;13.79;81.07;100651.25;4981321;28;47385;-76
2022/11/06 11:00:04;;;;;;;;;7.00;7.00;;;;;13.79;81.33;100655.75;4999416;28;45393;-76
2022/11/06 11:02:38;;;;;;;;;7.00;7.00;;;;;13.79;80.87;100642.41;4988570;28;45411;-76
2022/11/06 11:05:12;;;;;;;;;10.00;8.33;;;;;13.76;80.93;100649.81;5001420;28;47195;-76
2022/11/06 11:07:38;;;;;;;;;8.33;8.33;;;;;13.75;81.12;100642.81;4986388;28;47125;-75
2022/11/06 11:10:21;;;;;;;;;8.00;6.67;;;;;13.79;81.30;100653.09;5002679;28;45411;-77
2022/11/06 11:12:49;;;;;;;;;8.00;6.33;;;;;13.73;82.47;100644.84;4985542;28;45410;-75
2022/11/06 11:15:20;;;;;;;;;4.33;4.00;;;;;13.85;81.60;100652.31;5000002;28;45536;-77
2022/11/06 11:18:18;;;;;;;;;6.67;6.00;;;;;13.87;82.08;100634.25;4997754;28;45615;-78
2022/11/06 11:20:49;;;;;;;;;6.33;6.00;;;;;13.86;82.06;100614.69;4991837;28;45390;-78
2022/11/06 11:23:19;;;;;;;;;14.67;14.67;;;;;13.83;81.72;100608.97;4985397;28;45445;-77
2022/11/06 11:25:51;;;;;;;;;11.33;11.33;;;;;13.80;82.10;100604.00;4998775;28;46305;-79
2022/11/06 11:28:30;;;;;;;;;15.00;15.00;;;;;13.74;83.02;100589.59;4981306;28;48221;-78
2022/11/06 11:31:16;;;;;;;;;17.00;15.33;;;;;13.78;83.80;100595.34;5001126;28;45406;-77
2022/11/06 11:33:51;;;;;;;;;12.00;12.00;;;;;13.71;84.24;100598.81;5002578;28;45432;-79
2022/11/06 11:36:16;;;;;;;;;17.00;17.00;;;;;13.80;85.24;100618.16;4981596;28;46068;-80
2022/11/06 11:38:43;;;;;;;;;17.00;14.00;;;;;13.81;85.35;100616.34;4995164;28;45521;-80
2022/11/06 11:41:22;;;;;;;;;15.00;15.00;;;;;13.82;86.08;100616.13;4980589;28;45519;-80
2022/11/06 11:44:05;;;;;;;;;11.67;11.33;;;;;13.78;87.04;100606.03;4998007;28;45330;-78
2022/11/06 11:46:32;;;;;;;;;9.00;9.00;;;;;13.74;87.74;100601.09;4992400;28;45590;-79
2022/11/06 11:48:58;;;;;;;;;10.00;9.00;;;;;13.74;88.25;100601.09;5001981;28;46484;-79
2022/11/06 11:51:27;;;;;;;;;15.67;13.00;;;;;13.69;89.12;100590.19;5002169;28;45377;-78